Flight Track Log - Related Links

Times and Time Zones

All times are in EDT time to prevent confusion due to time zone crossing. See the DAL6196 flight status page for this flight to view local times or setup timezone preferences in your user account.

Time Position Orientation Groundspeed Altitude Reporting Facility
EDT Latitude Longitude Course Direction KTS MPH feet Rate Location/Type
Sat 08:07:38 AM 36.1167 -86.6833 158° South 153 176 1,500  Level Nashville TRACON
Sat 08:08:20 AM 36.0833 -86.6667 158° South 186 214 2,800 2,043 Climbing Nashville TRACON
Sat 08:09:56 AM 36.0933 -86.5375 84° East 270 311 6,200 2,423 Climbing Memphis Center
Sat 08:10:56 AM 36.1175 -86.4361 74° East 285 328 9,100 2,650 Climbing Memphis Center
Sat 08:11:56 AM 36.1433 -86.3322 73° East 303 349 11,500 2,050 Climbing Memphis Center
Sat 08:12:56 AM 36.1686 -86.2153 75° East 332 382 13,200 1,800 Climbing Memphis Center
Sat 08:13:56 AM 36.1958 -86.0928 75° East 356 410 15,100 1,750 Climbing Memphis Center
Sat 08:14:56 AM 36.2436 -85.9719 64° Northeast 372 428 16,700 1,650 Climbing Memphis Center
Sat 08:15:56 AM 36.2978 -85.8533 60° Northeast 389 448 18,400 1,714 Climbing Memphis Center
Sat 08:16:41 AM 36.3397 -85.7614 60° Northeast 402 463 19,700 1,585 Climbing Indianapolis Center
Sat 08:17:42 AM 36.3978 -85.6411 59° Northeast 404 465 21,200 1,328 Climbing Indianapolis Center
Sat 08:18:43 AM 36.4558 -85.5183 60° Northeast 407 468 22,400 1,131 Climbing Indianapolis Center
Sat 08:19:44 AM 36.5161 -85.3903 60° Northeast 420 483 23,500 1,073 Climbing Indianapolis Center
Sat 08:20:46 AM 36.5783 -85.2586 59° Northeast 434 499 24,600 1,073 Climbing Indianapolis Center
Sat 08:21:47 AM 36.6328 -85.1167 64° Northeast 450 518 25,700 1,033 Climbing Indianapolis Center
Sat 08:22:48 AM 36.6800 -84.9675 68° East 461 531 26,700 934 Climbing Indianapolis Center
Sat 08:23:49 AM 36.7261 -84.8172 69° East 463 533 27,600 885 Climbing Indianapolis Center
Sat 08:24:50 AM 36.7722 -84.6628 70° East 472 543 28,500 934 Climbing Indianapolis Center
Sat 08:25:51 AM 36.8225 -84.5022 69° East 475 547 29,500 934 Climbing Indianapolis Center
Sat 08:26:52 AM 36.8681 -84.3464 70° East 476 548 30,400 885 Climbing Indianapolis Center
Sat 08:27:53 AM 36.9158 -84.1897 69° East 478 550 31,300 885 Climbing Indianapolis Center
Sat 08:28:54 AM 36.9622 -84.0319 70° East 482 555 32,200 878 Climbing Indianapolis Center
Sat 08:29:56 AM 37.0089 -83.8761 69° East 479 551 33,100 878 Climbing Indianapolis Center
Sat 08:30:57 AM 37.0558 -83.7211 69° East 474 545 34,000 885 Climbing Indianapolis Center
Sat 08:31:58 AM 37.1011 -83.5639 70° East 476 548 34,900 492 Climbing Indianapolis Center
Sat 08:32:59 AM 37.1553 -83.3800 70° East 482 555 35,000 49 Climbing Indianapolis Center
Sat 08:34:00 AM 37.2006 -83.2222 70° East 477 549 35,000  Level Indianapolis Center
Sat 08:35:01 AM 37.2464 -83.0667 70° East 471 542 35,000  Level Indianapolis Center
Sat 08:36:03 AM 37.2900 -82.9111 71° East 469 540 35,000  Level Indianapolis Center
Sat 08:37:04 AM 37.3356 -82.7539 70° East 473 544 35,000  Level Indianapolis Center
Sat 08:38:05 AM 37.3786 -82.5981 71° East 471 542 35,000  Level Indianapolis Center
Sat 08:39:06 AM 37.4233 -82.4386 71° East 479 551 35,000  Level Indianapolis Center
Sat 08:40:08 AM 37.4672 -82.2789 71° East 481 554 35,000  Level Indianapolis Center
Sat 08:41:09 AM 37.5122 -82.1183 70° East 483 556 35,000  Level Indianapolis Center
Sat 08:42:10 AM 37.5567 -81.9567 71° East 486 559 35,000  Level Indianapolis Center
Sat 08:43:12 AM 37.6011 -81.7964 71° East 483 556 35,000  Level Indianapolis Center
Sat 08:44:13 AM 37.6442 -81.6342 71° East 486 559 35,000  Level Indianapolis Center
Sat 08:45:15 AM 37.6942 -81.4483 71° East 486 559 35,000  Level Indianapolis Center
Sat 08:46:16 AM 37.7369 -81.2911 71° East 486 559 35,000  Level Indianapolis Center
Sat 08:47:18 AM 37.7775 -81.1319 72° East 488 562 35,000  Level Indianapolis Center
Sat 08:48:19 AM 37.7919 -80.9600 84° East 503 579 35,000  Level Indianapolis Center
Sat 08:49:21 AM 37.8044 -80.7542 86° East 504 580 35,000  Level Indianapolis Center
Sat 08:50:22 AM 37.8150 -80.5836 85° East 504 580 35,000  Level Indianapolis Center
Sat 08:51:07 AM 37.8244 -80.4503 85° East 504 580 35,000  Level Washington Center
Sat 08:52:08 AM 37.8358 -80.2722 85° East 504 580 35,000  Level Washington Center
Sat 08:53:08 AM 37.8469 -80.0942 85° East 504 580 35,000  Level Washington Center
Sat 08:54:08 AM 37.8569 -79.9317 85° East 504 580 35,000  Level Washington Center
Sat 08:55:09 AM 37.8694 -79.7533 85° East 504 580 35,000  Level Washington Center
Sat 08:56:07 AM 37.8819 -79.5725 85° East 504 580 35,000  Level Washington Center
Sat 08:57:08 AM 37.8900 -79.3914 87° East 510 587 35,000  Level Washington Center
Sat 08:58:08 AM 37.8997 -79.2131 86° East 510 587 35,000  Level Washington Center
Sat 08:59:07 AM 37.9133 -79.0319 85° East 515 593 35,000  Level Washington Center
Sat 09:00:07 AM 37.9375 -78.8408 81° East 510 587 35,000  Level Washington Center
Sat 09:01:08 AM 37.9589 -78.6600 81° East 510 587 35,000  Level Washington Center
Sat 09:02:09 AM 37.9778 -78.4869 82° East 505 581 35,000  Level Washington Center
Sat 09:03:07 AM 37.9986 -78.3086 82° East 500 575 35,000  Level Washington Center
Sat 09:04:07 AM 38.0147 -78.1483 83° East 506 582 35,000  Level Washington Center
Sat 09:05:07 AM 38.0244 -77.9719 86° East 501 577 35,000  Level Washington Center
Sat 09:06:08 AM 38.0342 -77.7931 86° East 496 571 35,000  Level Washington Center
Sat 09:07:09 AM 38.0436 -77.6142 86° East 496 571 35,000  Level Washington Center
Sat 09:08:09 AM 38.0756 -77.4408 77° East 496 571 35,000  Level Washington Center
Sat 09:09:07 AM 38.1403 -77.2867 62° Northeast 489 563 35,000  Level Washington Center
Sat 09:10:08 AM 38.2092 -77.1322 60° Northeast 489 563 35,000  Level Washington Center
Sat 09:11:09 AM 38.2758 -76.9778 61° Northeast 489 563 35,000  Level Washington Center
Sat 09:12:09 AM 38.3419 -76.8281 61° Northeast 489 563 35,000 -559 Level Washington Center
Sat 09:13:07 AM 38.4122 -76.6756 60° Northeast 489 563 33,900 -1,322 Descending Washington Center
Sat 09:14:07 AM 38.4803 -76.5172 61° Northeast 495 570 32,400 -1,525 Descending Washington Center
Sat 09:15:09 AM 38.5625 -76.3856 51° Northeast 495 570 30,800 -1,550 Descending Washington Center
Sat 09:16:07 AM 38.6592 -76.2828 40° Northeast 467 537 29,300 -1,513 Descending Washington Center
Sat 09:17:08 AM 38.7556 -76.1800 40° Northeast 448 516 27,800 -1,131 Descending Washington Center
Sat 09:18:09 AM 38.8603 -76.0714 39° Northeast 443 510 27,000 -397 Descending Washington Center
Sat 09:19:09 AM 38.9044 -75.9250 69° East 423 487 27,000  Level Washington Center
Sat 09:20:09 AM 38.9569 -75.7786 65° Northeast 429 494 27,000  Level Washington Center
Sat 09:21:09 AM 39.0592 -75.6797 37° Northeast 434 499 27,000 -750 Level Washington Center
Sat 09:22:09 AM 39.1633 -75.5808 36° Northeast 447 514 25,500 -1,678 Descending Washington Center
Sat 09:23:07 AM 39.2697 -75.4844 35° Northeast 461 531 23,700 -1,815 Descending Washington Center
Sat 09:24:08 AM 39.3736 -75.3928 34° Northeast 461 531 21,900 -1,721 Descending Washington Center
Sat 09:25:09 AM 39.4756 -75.3011 35° Northeast 450 518 20,200 -1,587 Descending Washington Center
Sat 09:26:09 AM 39.5753 -75.2092 35° Northeast 445 512 18,700 -1,576 Descending Washington Center
Sat 09:27:07 AM 39.6750 -75.1169 35° Northeast 440 506 17,100 -1,500 Descending Washington Center
Sat 09:28:09 AM 39.7728 -75.0328 33° Northeast 430 495 15,700 -1,500 Descending Washington Center
Sat 09:29:07 AM 39.8681 -74.9508 33° Northeast 415 478 14,100 -1,412 Descending Washington Center
Sat 09:30:08 AM 39.9467 -74.8636 40° Northeast 415 478 12,900 -1,328 Descending Washington Center
Sat 09:31:09 AM 40.0231 -74.7569 47° Northeast 402 463 11,400 -1,145 Descending Washington Center
Sat 09:32:40 AM 40.1333 -74.5833 50° Northeast 378 435 10,000 -556 Descending New York TRACON
Sat 09:33:40 AM 40.2000 -74.4833 49° Northeast 365 420 10,000 -350 Level New York TRACON
Sat 09:34:40 AM 40.2667 -74.4000 44° Northeast 319 367 9,300 -1,263 Descending New York TRACON
Sat 09:35:34 AM 40.3333 -74.3333 37° Northeast 317 365 7,600 -1,211 Descending New York TRACON
Sat 09:36:34 AM 40.4000 -74.2500 44° Northeast 300 345 7,000 -316 Descending New York TRACON
Sat 09:37:28 AM 40.4500 -74.1833 45° Northeast 303 349 7,000 -526 Level New York TRACON
Sat 09:38:28 AM 40.5000 -74.1167 45° Northeast 295 339 6,000 -500 Descending New York TRACON
Sat 09:39:28 AM 40.5667 -74.0500 37° Northeast 277 319 6,000 -500 Level New York TRACON
Sat 09:40:28 AM 40.6500 -74.0333 North 272 313 5,000 -1,350 Descending New York TRACON
Sat 09:41:28 AM 40.7167 -74.0167 11° North 257 296 3,300 -1,000 Descending New York TRACON
Sat 09:42:28 AM 40.7833 -74.0000 11° North 262 302 3,000 -150 Descending New York TRACON
Sat 09:43:28 AM 40.8500 -73.9500 30° Northeast 262 302 3,000 -105 Level New York TRACON
Sat 09:44:22 AM 40.8833 -73.8833 57° Northeast 260 299 2,800 -526 Descending New York TRACON
Sat 09:45:22 AM 40.8667 -73.8167 108° East 223 257 2,000 -842 Descending New York TRACON
Sat 09:46:16 AM 40.8333 -73.8333 201° Southwest 141 162 1,200 -800 Descending New York TRACON
Sat 09:47:22 AM 40.8000 -73.8667 217° Southwest 130 150 400 -727 Descending New York TRACON

Login

Don't have an account? Register now (free) for customized features, flight alerts, and more!